createdAt,value
2022-12-03T00:00:51.927Z,24.88
2022-12-03T00:03:19.704Z,25.33
2022-12-03T00:05:49.023Z,27.02
2022-12-03T00:08:17.112Z,26.48
2022-12-03T00:10:44.828Z,28.23
2022-12-03T00:13:12.594Z,29.85
2022-12-03T00:15:41.738Z,31.27
2022-12-03T00:18:09.428Z,31.65
2022-12-03T00:20:37.080Z,33.22
2022-12-03T00:23:04.787Z,33.97
2022-12-03T00:25:32.487Z,36.28
2022-12-03T00:28:00.166Z,38.47
2022-12-03T00:30:27.862Z,39.63
2022-12-03T00:32:56.902Z,40.65
2022-12-03T00:35:24.605Z,42.45
2022-12-03T00:37:52.283Z,44.63
2022-12-03T00:40:20.134Z,44.75
2022-12-03T00:42:47.824Z,46.80
2022-12-03T00:45:15.505Z,47.95
2022-12-03T00:47:43.146Z,51.45
2022-12-03T00:50:12.969Z,53.22
2022-12-03T00:52:40.643Z,54.40
2022-12-03T00:55:08.954Z,56.42
2022-12-03T00:57:36.666Z,56.03
2022-12-03T01:00:04.614Z,58.60
2022-12-03T01:02:32.297Z,61.92
2022-12-03T01:04:59.964Z,61.95
2022-12-03T01:07:29.042Z,64.30
2022-12-03T01:09:56.698Z,66.40
2022-12-03T01:12:24.367Z,68.45
2022-12-03T01:14:52.404Z,69.97
2022-12-03T01:17:20.321Z,72.82
2022-12-03T01:19:48.581Z,77.18
2022-12-03T01:22:16.419Z,76.70
2022-12-03T01:24:45.402Z,81.43
2022-12-03T01:27:13.094Z,84.43
2022-12-03T01:29:40.761Z,86.47
2022-12-03T01:32:19.602Z,87.65
2022-12-03T01:34:47.864Z,89.32
2022-12-03T01:37:15.585Z,92.22
2022-12-03T01:39:44.732Z,90.50
2022-12-03T01:42:13.897Z,92.07
2022-12-03T01:44:41.575Z,97.20
2022-12-03T01:47:12.934Z,97.25
2022-12-03T01:49:41.855Z,97.55
2022-12-03T01:52:11.650Z,102.40
2022-12-03T01:54:40.471Z,101.53
2022-12-03T01:57:15.048Z,104.97
2022-12-03T01:59:42.735Z,103.68
2022-12-03T02:02:13.712Z,107.50
2022-12-03T02:04:41.540Z,103.57
2022-12-03T02:07:23.324Z,107.47
2022-12-03T02:09:51.025Z,110.15
2022-12-03T02:12:21.353Z,111.55
2022-12-03T02:14:49.279Z,113.97
2022-12-03T02:17:17.435Z,111.38
2022-12-03T02:19:45.116Z,111.25
2022-12-03T02:22:20.454Z,112.80
2022-12-03T02:24:50.313Z,114.03
2022-12-03T02:27:19.507Z,114.68
2022-12-03T02:30:02.977Z,113.47
2022-12-03T02:32:30.622Z,116.32
2022-12-03T02:34:58.289Z,116.43
2022-12-03T02:37:27.202Z,116.53
2022-12-03T02:39:56.039Z,121.35
2022-12-03T02:42:37.317Z,123.00
2022-12-03T02:45:07.859Z,118.93
2022-12-03T02:47:36.496Z,119.68
2022-12-03T02:50:04.682Z,120.35
2022-12-03T02:52:32.390Z,123.47
2022-12-03T02:55:00.108Z,119.45
2022-12-03T02:57:29.094Z,119.88
2022-12-03T02:59:56.773Z,122.03
2022-12-03T03:02:24.524Z,119.90
2022-12-03T03:04:52.502Z,123.57
2022-12-03T03:07:20.394Z,121.47
2022-12-03T03:09:48.073Z,120.20
2022-12-03T03:12:15.727Z,124.32
2022-12-03T03:14:44.707Z,124.22
2022-12-03T03:17:12.406Z,121.78
2022-12-03T03:19:40.058Z,126.53
2022-12-03T03:22:07.743Z,122.85
2022-12-03T03:24:35.412Z,121.45
2022-12-03T03:27:03.065Z,120.28
2022-12-03T03:29:31.474Z,117.43
2022-12-03T03:32:00.591Z,124.88
2022-12-03T03:34:28.505Z,124.78
2022-12-03T03:36:56.173Z,119.95
2022-12-03T03:39:24.362Z,117.97
2022-12-03T03:41:52.025Z,119.40
2022-12-03T03:44:19.683Z,121.25
2022-12-03T03:46:48.712Z,121.03
2022-12-03T03:49:17.715Z,120.20
2022-12-03T03:51:45.479Z,118.63
2022-12-03T03:54:13.414Z,120.82
2022-12-03T03:56:41.087Z,114.60
2022-12-03T03:59:08.757Z,117.38
2022-12-03T04:01:36.588Z,119.13
2022-12-03T04:04:04.503Z,117.88
2022-12-03T04:06:33.564Z,116.95
2022-12-03T04:09:01.203Z,118.97
2022-12-03T04:11:46.629Z,115.32
2022-12-03T04:14:14.309Z,116.70
2022-12-03T04:16:42.083Z,117.25
2022-12-03T04:19:08.858Z,112.85
2022-12-03T04:21:57.989Z,114.68
2022-12-03T04:24:25.663Z,113.88
2022-12-03T04:27:10.817Z,111.13
2022-12-03T04:29:38.533Z,112.80
2022-12-03T04:32:23.774Z,111.28
2022-12-03T04:35:09.245Z,110.18
2022-12-03T04:37:38.284Z,112.47
2022-12-03T04:40:27.368Z,110.00
2022-12-03T04:42:55.035Z,111.07
2022-12-03T04:45:22.697Z,107.78
2022-12-03T04:47:50.381Z,106.32
2022-12-03T04:50:18.081Z,104.60
2022-12-03T04:52:47.083Z,106.70
2022-12-03T04:55:14.892Z,105.30
2022-12-03T04:57:42.565Z,104.05
2022-12-03T05:00:11.485Z,103.95
2022-12-03T05:02:39.358Z,102.00
2022-12-03T05:05:07.933Z,101.88
2022-12-03T05:07:35.667Z,104.03
2022-12-03T05:10:05.173Z,102.93
2022-12-03T05:12:32.823Z,100.82
2022-12-03T05:15:00.479Z,98.35
2022-12-03T05:17:28.235Z,100.20
2022-12-03T05:20:13.613Z,97.40
2022-12-03T05:22:41.267Z,96.60
2022-12-03T05:25:10.809Z,94.57
2022-12-03T05:27:38.483Z,94.65
2022-12-03T05:30:07.529Z,91.68
2022-12-03T05:32:35.258Z,91.88
2022-12-03T05:35:02.897Z,93.45
2022-12-03T05:37:30.530Z,90.68
2022-12-03T05:39:58.180Z,89.53
2022-12-03T05:42:44.734Z,87.50
2022-12-03T05:45:12.413Z,87.63
2022-12-03T05:47:40.065Z,87.38
2022-12-03T05:50:08.865Z,85.25
2022-12-03T05:52:36.535Z,85.60
2022-12-03T05:55:04.970Z,84.35
2022-12-03T05:57:34.057Z,84.88
2022-12-03T06:00:01.767Z,79.60
2022-12-03T06:02:29.574Z,82.70
2022-12-03T06:04:57.295Z,80.50
2022-12-03T06:07:25.019Z,79.95
2022-12-03T06:09:52.714Z,78.85
2022-12-03T06:12:20.429Z,78.07
2022-12-03T06:14:49.412Z,75.43
2022-12-03T06:17:17.101Z,76.93
2022-12-03T06:19:44.773Z,73.55
2022-12-03T06:22:12.531Z,75.63
2022-12-03T06:24:40.227Z,74.13
2022-12-03T06:27:07.867Z,70.35
2022-12-03T06:29:35.590Z,73.28
2022-12-03T06:32:04.615Z,70.82
2022-12-03T06:34:32.290Z,70.32
2022-12-03T06:36:59.939Z,70.38
2022-12-03T06:39:27.612Z,69.28
2022-12-03T06:41:55.296Z,68.18
2022-12-03T06:44:22.971Z,66.90
2022-12-03T06:46:50.696Z,64.90
2022-12-03T06:49:19.767Z,65.60
2022-12-03T06:51:47.429Z,67.15
2022-12-03T06:54:15.140Z,65.43
2022-12-03T06:56:45.424Z,62.95
2022-12-03T06:59:13.461Z,61.97
2022-12-03T07:01:41.210Z,63.00
2022-12-03T07:04:09.799Z,61.55
2022-12-03T07:06:38.778Z,59.38
2022-12-03T07:09:06.556Z,58.83
2022-12-03T07:11:39.981Z,59.47
2022-12-03T07:14:08.249Z,59.47
2022-12-03T07:16:36.220Z,57.53
2022-12-03T07:19:04.033Z,57.08
2022-12-03T07:21:31.736Z,56.78
2022-12-03T07:24:00.752Z,55.42
2022-12-03T07:26:28.445Z,54.92
2022-12-03T07:28:56.573Z,53.28
2022-12-03T07:31:24.366Z,52.13
2022-12-03T07:33:52.083Z,52.05
2022-12-03T07:36:19.769Z,52.53
2022-12-03T07:38:47.471Z,51.20
2022-12-03T07:41:17.976Z,50.97
2022-12-03T07:43:45.731Z,49.92
2022-12-03T07:46:13.433Z,49.95
2022-12-03T07:48:41.108Z,47.63
2022-12-03T07:51:10.513Z,47.00
2022-12-03T07:53:42.087Z,47.15
2022-12-03T07:56:09.962Z,46.25
2022-12-03T07:58:38.982Z,46.50
2022-12-03T08:01:06.906Z,44.88
2022-12-03T08:03:34.654Z,44.42
2022-12-03T08:06:02.321Z,44.42
2022-12-03T08:08:30.014Z,42.97
2022-12-03T08:10:57.666Z,42.97
2022-12-03T08:13:25.350Z,42.97
2022-12-03T08:15:54.539Z,40.53
2022-12-03T08:18:22.490Z,40.83
2022-12-03T08:20:51.669Z,39.50
2022-12-03T08:23:20.088Z,39.55
2022-12-03T08:25:48.324Z,38.22
2022-12-03T08:28:16.844Z,37.95
2022-12-03T08:30:44.650Z,38.38
2022-12-03T08:33:23.092Z,37.55
2022-12-03T08:35:51.741Z,36.15
2022-12-03T08:38:20.939Z,35.35
2022-12-03T08:40:49.970Z,35.38
2022-12-03T08:43:20.327Z,33.10
2022-12-03T08:45:49.722Z,27.92
2022-12-03T08:48:27.743Z,29.23
2022-12-03T08:50:56.174Z,28.55
2022-12-03T08:53:30.406Z,30.00
2022-12-03T08:55:58.775Z,28.52
2022-12-03T08:58:29.037Z,28.27
2022-12-03T09:00:58.975Z,27.92
2022-12-03T09:03:30.846Z,27.77
2022-12-03T09:05:58.552Z,26.33
2022-12-03T09:08:26.436Z,25.10
2022-12-03T09:10:54.132Z,24.88
2022-12-03T09:13:21.807Z,25.70
2022-12-03T09:15:49.521Z,25.80
2022-12-03T09:18:17.192Z,24.70
2022-12-03T09:20:46.219Z,23.50
2022-12-03T09:23:13.974Z,20.90
2022-12-03T09:25:41.683Z,19.92
2022-12-03T09:28:09.332Z,19.30
2022-12-03T09:30:37.011Z,18.88
2022-12-03T09:33:04.930Z,19.58
2022-12-03T09:35:33.873Z,20.08
2022-12-03T09:38:02.904Z,19.35
2022-12-03T09:40:30.600Z,17.85
2022-12-03T09:42:59.106Z,17.20
2022-12-03T09:45:26.795Z,20.35
2022-12-03T09:47:54.506Z,19.90
2022-12-03T09:50:23.561Z,18.73
2022-12-03T09:52:51.332Z,17.45
2022-12-03T09:55:23.013Z,17.63
2022-12-03T09:57:51.777Z,20.25
2022-12-03T10:00:21.676Z,15.77
2022-12-03T10:02:49.508Z,15.27
2022-12-03T10:05:20.036Z,16.45
2022-12-03T10:07:48.866Z,13.63
2022-12-03T10:10:17.030Z,12.07
2022-12-03T10:12:46.153Z,12.90
2022-12-03T10:15:14.578Z,14.60
2022-12-03T10:17:42.339Z,14.15
2022-12-03T10:20:11.967Z,13.05
2022-12-03T10:22:39.666Z,12.65
2022-12-03T10:25:09.249Z,17.58
2022-12-03T10:27:37.024Z,12.68
2022-12-03T10:30:14.592Z,12.20
2022-12-03T10:32:43.187Z,11.63
2022-12-03T10:35:12.127Z,11.77
2022-12-03T10:37:58.004Z,17.60
2022-12-03T10:40:26.280Z,12.50
2022-12-03T10:42:54.849Z,11.38
2022-12-03T10:45:24.065Z,13.85
2022-12-03T10:48:04.275Z,11.32
2022-12-03T10:50:32.103Z,14.73
2022-12-03T10:52:59.869Z,13.43
2022-12-03T10:55:28.342Z,14.75
2022-12-03T10:57:55.994Z,10.95
2022-12-03T11:00:25.337Z,13.70
2022-12-03T11:02:56.662Z,10.15
2022-12-03T11:05:27.654Z,10.82
2022-12-03T11:07:55.603Z,8.48
2022-12-03T11:10:23.494Z,12.10
2022-12-03T11:13:31.318Z,9.25
2022-12-03T11:16:00.654Z,12.18
2022-12-03T11:18:58.262Z,11.30
2022-12-03T11:21:26.083Z,8.88
2022-12-03T11:24:20.822Z,7.78
2022-12-03T11:27:25.846Z,8.85
2022-12-03T11:30:01.425Z,14.35
2022-12-03T11:33:09.124Z,10.80
2022-12-03T11:36:31.656Z,11.05
2022-12-03T11:39:09.359Z,17.42
2022-12-03T11:41:37.066Z,12.77
2022-12-03T11:44:30.280Z,11.30
2022-12-03T11:47:13.814Z,10.70
2022-12-03T11:49:50.643Z,8.75
2022-12-03T11:52:26.820Z,11.63
2022-12-03T11:54:58.810Z,9.15
2022-12-03T11:57:37.112Z,12.50
2022-12-03T12:00:23.186Z,15.65
2022-12-03T12:02:51.592Z,16.25
2022-12-03T12:05:21.882Z,16.02
2022-12-03T12:07:49.922Z,14.73
2022-12-03T12:10:44.076Z,13.95
2022-12-03T12:13:29.403Z,18.85
2022-12-03T12:15:58.669Z,18.35
2022-12-03T12:18:39.789Z,15.00
2022-12-03T12:21:42.574Z,16.25
2022-12-03T12:24:32.493Z,17.38
2022-12-03T12:27:02.137Z,12.85
2022-12-03T12:29:29.828Z,29.95
2022-12-03T12:32:03.270Z,21.25
2022-12-03T12:34:31.006Z,16.85
2022-12-03T12:36:59.010Z,20.75
2022-12-03T12:39:26.793Z,26.45
2022-12-03T12:41:54.481Z,19.17
2022-12-03T12:44:26.370Z,16.65
2022-12-03T12:46:54.672Z,17.95
2022-12-03T12:49:26.802Z,18.60
2022-12-03T12:51:54.913Z,16.05
2022-12-03T12:54:22.559Z,20.58
2022-12-03T12:56:50.668Z,18.15
2022-12-03T12:59:19.495Z,19.88
2022-12-03T13:01:49.469Z,15.07
2022-12-03T13:04:18.179Z,15.55
2022-12-03T13:06:46.038Z,14.60
2022-12-03T13:09:15.739Z,20.35
2022-12-03T13:11:45.621Z,17.55
2022-12-03T13:14:17.727Z,17.65
2022-12-03T13:16:45.587Z,10.45
2022-12-03T13:19:21.460Z,15.27
2022-12-03T13:21:49.207Z,10.95
2022-12-03T13:24:31.296Z,13.13
2022-12-03T13:26:59.145Z,12.05
2022-12-03T13:29:27.198Z,10.07
2022-12-03T13:31:55.891Z,11.20
2022-12-03T13:34:25.708Z,13.85
2022-12-03T13:36:58.153Z,11.75
2022-12-03T13:39:29.378Z,11.93
2022-12-03T13:42:14.854Z,14.30
2022-12-03T13:44:44.059Z,18.77
2022-12-03T13:47:13.709Z,18.27
2022-12-03T13:49:42.757Z,14.88
2022-12-03T13:52:12.696Z,12.05
2022-12-03T13:54:40.410Z,11.43
2022-12-03T13:57:08.067Z,16.52
2022-12-03T13:59:35.775Z,14.18
2022-12-03T14:02:03.626Z,14.23
2022-12-03T14:04:31.306Z,17.77
2022-12-03T14:07:00.354Z,14.48
2022-12-03T14:09:28.157Z,18.10
2022-12-03T14:12:13.320Z,21.42
2022-12-03T14:14:40.991Z,17.02
2022-12-03T14:17:09.474Z,12.23
2022-12-03T14:19:37.262Z,15.23
2022-12-03T14:22:07.969Z,12.82
2022-12-03T14:24:35.696Z,13.27
2022-12-03T14:27:03.368Z,17.00
2022-12-03T14:29:31.015Z,11.93
2022-12-03T14:32:00.277Z,21.10
2022-12-03T14:34:28.014Z,12.30
2022-12-03T14:36:55.718Z,11.50
2022-12-03T14:39:24.785Z,13.88
2022-12-03T14:42:10.493Z,12.10
2022-12-03T14:44:38.243Z,15.07
2022-12-03T14:47:05.953Z,12.40
2022-12-03T14:49:33.704Z,16.60
2022-12-03T14:52:01.369Z,10.95
2022-12-03T14:54:30.384Z,14.68
2022-12-03T14:56:58.047Z,13.23
2022-12-03T14:59:27.832Z,28.63
2022-12-03T15:01:56.301Z,29.60
2022-12-03T15:04:24.126Z,42.97
2022-12-03T15:06:51.873Z,20.92
2022-12-03T15:09:20.324Z,20.15
2022-12-03T15:11:49.406Z,25.60
2022-12-03T15:14:17.123Z,42.70
2022-12-03T15:16:44.841Z,41.00
2022-12-03T15:19:14.951Z,60.50
2022-12-03T15:21:42.614Z,23.45
2022-12-03T15:24:10.588Z,27.38
2022-12-03T15:26:38.328Z,39.33
2022-12-03T15:29:07.366Z,37.40
2022-12-03T15:31:35.082Z,45.15
2022-12-03T15:34:02.781Z,27.17
2022-12-03T15:36:30.463Z,33.13
2022-12-03T15:38:58.225Z,42.90
2022-12-03T15:41:29.092Z,36.78
2022-12-03T15:43:57.609Z,22.20
2022-12-03T15:46:27.661Z,29.17
2022-12-03T15:48:55.672Z,20.38
2022-12-03T15:51:23.338Z,27.42
2022-12-03T15:53:51.095Z,24.58
2022-12-03T15:56:18.764Z,23.70
2022-12-03T15:58:46.423Z,34.20
2022-12-03T16:01:14.389Z,29.80
2022-12-03T16:03:43.411Z,20.58
2022-12-03T16:06:11.155Z,24.25
2022-12-03T16:08:38.859Z,22.88
2022-12-03T16:11:07.068Z,23.10
2022-12-03T16:13:34.782Z,22.05
2022-12-03T16:16:02.531Z,14.38
2022-12-03T16:18:30.552Z,14.35
2022-12-03T16:20:59.599Z,15.93
2022-12-03T16:23:27.326Z,15.70
2022-12-03T16:25:55.000Z,15.85
2022-12-03T16:28:22.680Z,20.42
2022-12-03T16:30:50.493Z,24.25
2022-12-03T16:33:21.256Z,17.83
2022-12-03T16:35:53.461Z,17.70
2022-12-03T16:38:22.446Z,31.00
2022-12-03T16:40:50.149Z,13.77
2022-12-03T16:43:17.815Z,17.65
2022-12-03T16:46:20.394Z,34.00
2022-12-03T16:48:48.735Z,20.27
2022-12-03T16:51:16.576Z,16.20
2022-12-03T16:53:45.587Z,27.90
2022-12-03T16:56:13.278Z,20.60
2022-12-03T16:58:41.246Z,19.40
2022-12-03T17:01:09.081Z,16.33
2022-12-03T17:03:36.907Z,16.55
2022-12-03T17:06:04.909Z,16.95
2022-12-03T17:08:32.585Z,15.55
2022-12-03T17:11:01.619Z,13.75
2022-12-03T17:13:29.354Z,15.43
2022-12-03T17:15:57.108Z,10.93
2022-12-03T17:18:24.826Z,13.75
2022-12-03T17:20:52.543Z,14.73
2022-12-03T17:23:20.182Z,14.40
2022-12-03T17:25:47.855Z,13.45
2022-12-03T17:28:16.810Z,13.13
2022-12-03T17:30:44.775Z,8.73
2022-12-03T17:33:12.493Z,11.40
2022-12-03T17:35:40.165Z,9.50
2022-12-03T17:38:08.976Z,8.23
2022-12-03T17:40:36.626Z,12.02
2022-12-03T17:43:04.366Z,9.45
2022-12-03T17:45:33.403Z,9.18
2022-12-03T17:48:01.118Z,11.68
2022-12-03T17:50:28.795Z,9.88
2022-12-03T17:52:56.474Z,10.15
2022-12-03T17:55:35.913Z,9.80
2022-12-03T17:58:04.894Z,10.05
2022-12-03T18:00:34.047Z,10.00
2022-12-03T18:03:01.703Z,10.07
2022-12-03T18:05:29.367Z,9.85
2022-12-03T18:07:57.275Z,9.52
2022-12-03T18:10:25.350Z,11.05
2022-12-03T18:12:58.338Z,10.02
2022-12-03T18:15:29.100Z,9.13
2022-12-03T18:17:58.221Z,9.68
2022-12-03T18:20:25.952Z,8.55
2022-12-03T18:22:53.752Z,8.93
2022-12-03T18:25:21.403Z,7.70
2022-12-03T18:27:49.109Z,8.38
2022-12-03T18:30:16.968Z,6.78
2022-12-03T18:32:44.643Z,11.23
2022-12-03T18:35:13.651Z,6.80
2022-12-03T18:37:41.390Z,8.75
2022-12-03T18:40:13.300Z,6.95
2022-12-03T18:42:41.242Z,8.57
2022-12-03T18:45:11.841Z,6.95
2022-12-03T18:47:39.581Z,7.05
2022-12-03T18:50:09.383Z,8.25
2022-12-03T18:52:38.381Z,7.90
2022-12-03T18:55:07.085Z,5.13
2022-12-03T18:57:34.780Z,7.10
2022-12-03T19:00:02.470Z,7.78
2022-12-03T19:03:01.395Z,5.57
2022-12-03T19:05:18.059Z,6.55
2022-12-03T19:07:47.115Z,6.68
2022-12-03T19:10:15.125Z,9.15
2022-12-03T19:12:42.859Z,8.43
2022-12-03T19:15:10.934Z,5.53
2022-12-03T19:17:39.584Z,9.02
2022-12-03T19:20:10.558Z,6.70
2022-12-03T19:22:38.307Z,6.85
2022-12-03T19:25:07.806Z,10.02
2022-12-03T19:27:35.469Z,7.45
2022-12-03T19:30:03.257Z,5.93
2022-12-03T19:32:30.954Z,6.25
2022-12-03T19:34:58.808Z,7.93
2022-12-03T19:37:26.511Z,5.90
2022-12-03T19:39:54.646Z,8.50
2022-12-03T19:42:23.889Z,5.30
2022-12-03T19:44:51.726Z,4.90
2022-12-03T19:47:19.761Z,7.85
2022-12-03T19:49:47.581Z,5.38
2022-12-03T19:52:15.256Z,6.75
2022-12-03T19:54:42.911Z,4.93
2022-12-03T19:57:10.560Z,5.38
2022-12-03T19:59:39.827Z,5.65
2022-12-03T20:02:07.650Z,6.03
2022-12-03T20:04:35.432Z,4.93
2022-12-03T20:07:03.091Z,6.50
2022-12-03T20:09:30.796Z,5.10
2022-12-03T20:11:58.561Z,5.50
2022-12-03T20:14:26.288Z,6.20
2022-12-03T20:16:55.397Z,6.00
2022-12-03T20:19:23.271Z,5.90
2022-12-03T20:21:51.032Z,5.53
2022-12-03T20:24:19.256Z,6.50
2022-12-03T20:26:46.947Z,6.88
2022-12-03T20:29:14.659Z,5.10
2022-12-03T20:31:42.422Z,5.20
2022-12-03T20:34:12.163Z,7.28
2022-12-03T20:36:39.895Z,5.78
2022-12-03T20:39:08.280Z,4.75
2022-12-03T20:41:36.338Z,6.50
2022-12-03T20:44:05.819Z,5.85
2022-12-03T20:46:33.542Z,5.05
2022-12-03T20:49:01.267Z,5.75
2022-12-03T20:51:30.987Z,4.93
2022-12-03T20:53:58.840Z,5.60
2022-12-03T20:56:27.516Z,5.25
2022-12-03T20:58:55.307Z,7.30
2022-12-03T21:01:23.986Z,5.78
2022-12-03T21:03:52.313Z,6.57
2022-12-03T21:06:20.052Z,5.38
2022-12-03T21:08:49.188Z,5.80
2022-12-03T21:11:18.234Z,4.50
2022-12-03T21:13:46.272Z,5.70
2022-12-03T21:16:14.724Z,5.13
2022-12-03T21:18:42.663Z,4.80
2022-12-03T21:21:11.703Z,4.72
2022-12-03T21:23:39.439Z,5.70
2022-12-03T21:26:09.522Z,5.25
2022-12-03T21:28:38.576Z,5.05
2022-12-03T21:31:07.204Z,4.70
2022-12-03T21:33:35.035Z,5.22
2022-12-03T21:36:02.937Z,4.97
2022-12-03T21:38:30.690Z,5.95
2022-12-03T21:40:58.677Z,5.20
2022-12-03T21:43:27.953Z,4.35
2022-12-03T21:45:55.801Z,4.75
2022-12-03T21:48:23.630Z,6.38
2022-12-03T21:50:59.048Z,5.72
2022-12-03T21:53:26.747Z,4.57
2022-12-03T21:55:54.419Z,5.00
2022-12-03T21:58:22.092Z,5.13
2022-12-03T22:00:51.181Z,6.20
2022-12-03T22:03:19.034Z,5.07
2022-12-03T22:05:46.747Z,5.60
2022-12-03T22:08:14.622Z,4.53
2022-12-03T22:10:42.392Z,4.60
2022-12-03T22:13:10.148Z,5.57
2022-12-03T22:15:39.189Z,4.70
2022-12-03T22:18:08.243Z,5.10
2022-12-03T22:20:35.950Z,6.07
2022-12-03T22:23:03.860Z,4.72
2022-12-03T22:25:31.748Z,5.90
2022-12-03T22:27:59.484Z,4.57
2022-12-03T22:30:27.219Z,5.90
2022-12-03T22:32:54.885Z,4.60
2022-12-03T22:35:23.988Z,5.03
2022-12-03T22:37:51.706Z,4.72
2022-12-03T22:40:19.491Z,4.70
2022-12-03T22:42:50.955Z,4.60
2022-12-03T22:45:18.907Z,5.28
2022-12-03T22:47:46.591Z,4.63
2022-12-03T22:50:14.482Z,5.03
2022-12-03T22:52:43.498Z,4.57
2022-12-03T22:55:11.130Z,4.70
2022-12-03T22:57:38.851Z,4.47
2022-12-03T23:00:07.874Z,5.15
2022-12-03T23:02:35.699Z,4.93
2022-12-03T23:05:03.432Z,5.03
2022-12-03T23:07:31.147Z,4.43
2022-12-03T23:10:00.173Z,5.00
2022-12-03T23:12:27.972Z,5.20
2022-12-03T23:14:56.000Z,4.43
2022-12-03T23:17:23.699Z,4.93
2022-12-03T23:19:51.366Z,4.85
2022-12-03T23:22:19.089Z,4.80
2022-12-03T23:24:46.856Z,5.20
2022-12-03T23:27:15.895Z,4.45
2022-12-03T23:29:43.554Z,4.93
2022-12-03T23:32:11.214Z,4.78
2022-12-03T23:34:38.966Z,4.57
2022-12-03T23:37:06.732Z,5.05
2022-12-03T23:39:34.438Z,4.50
2022-12-03T23:42:02.102Z,4.80
2022-12-03T23:44:31.192Z,4.25
2022-12-03T23:46:59.020Z,5.03
2022-12-03T23:49:26.847Z,4.82
2022-12-03T23:51:54.520Z,4.90
2022-12-03T23:54:22.360Z,4.75
2022-12-03T23:56:50.113Z,5.70
2022-12-03T23:59:17.806Z,4.68
